createdAt,value
2023-07-29T00:00:46.936Z,101074.88
2023-07-29T00:03:59.677Z,101069.63
2023-07-29T00:09:48.546Z,101071.47
2023-07-29T00:12:31.608Z,101072.88
2023-07-29T00:12:44.273Z,101066.59
2023-07-29T00:15:35.066Z,101066.53
2023-07-29T00:18:30.895Z,101071.50
2023-07-29T00:21:27.774Z,101060.66
2023-07-29T00:26:54.812Z,101060.31
2023-07-29T00:29:24.515Z,101052.78
2023-07-29T00:32:13.991Z,101053.38
2023-07-29T00:34:49.414Z,101055.34
2023-07-29T00:37:22.721Z,101056.63
2023-07-29T00:40:23.180Z,101056.75
2023-07-29T00:43:09.655Z,101052.56
2023-07-29T00:45:47.652Z,101043.94
2023-07-29T00:48:46.352Z,101049.44
2023-07-29T00:51:28.672Z,101051.31
2023-07-29T00:54:07.506Z,101043.47
2023-07-29T00:56:37.843Z,101035.41
2023-07-29T00:59:10.566Z,101038.84
2023-07-29T01:01:40.816Z,101042.69
2023-07-29T01:04:15.721Z,101040.56
2023-07-29T01:07:22.127Z,101044.19
2023-07-29T01:10:09.780Z,101047.00
2023-07-29T01:12:53.836Z,101045.03
2023-07-29T01:15:57.677Z,101040.84
2023-07-29T01:18:47.492Z,101044.41
2023-07-29T01:21:29.547Z,101037.91
2023-07-29T01:24:05.863Z,101042.38
2023-07-29T01:26:42.940Z,101036.53
2023-07-29T01:29:23.943Z,101035.06
2023-07-29T01:32:13.416Z,101032.19
2023-07-29T01:35:03.336Z,101034.94
2023-07-29T01:37:39.759Z,101032.94
2023-07-29T01:40:11.180Z,101034.81
2023-07-29T01:42:40.689Z,101033.56
2023-07-29T01:45:19.417Z,101026.97
2023-07-29T01:47:48.868Z,101031.59
2023-07-29T01:50:20.615Z,101036.34
2023-07-29T01:52:49.717Z,101033.50
2023-07-29T01:55:19.116Z,101037.50
2023-07-29T01:57:51.886Z,101034.94
2023-07-29T02:00:28.485Z,101034.94
2023-07-29T02:03:22.821Z,101034.34
2023-07-29T02:05:55.113Z,101024.97
2023-07-29T02:09:13.432Z,101027.19
2023-07-29T02:14:58.626Z,101025.78
2023-07-29T02:17:52.848Z,101035.81
2023-07-29T02:20:57.851Z,101039.00
2023-07-29T02:23:57.199Z,101042.25
2023-07-29T02:30:29.690Z,101042.75
2023-07-29T02:33:03.328Z,101045.66
2023-07-29T02:35:32.445Z,101049.41
2023-07-29T02:38:02.325Z,101047.22
2023-07-29T02:41:03.037Z,101042.25
2023-07-29T02:47:48.886Z,101054.72
2023-07-29T02:50:21.630Z,101048.22
2023-07-29T02:52:51.784Z,101049.00
2023-07-29T02:55:21.036Z,101055.94
2023-07-29T02:57:54.129Z,101067.22
2023-07-29T03:00:23.232Z,101060.13
2023-07-29T03:02:52.952Z,101054.88
2023-07-29T03:05:22.144Z,101057.13
2023-07-29T03:07:51.243Z,101056.59
2023-07-29T03:10:40.431Z,101053.44
2023-07-29T03:13:09.771Z,101051.47
2023-07-29T03:15:42.081Z,101051.13
2023-07-29T03:18:14.077Z,101054.47
2023-07-29T03:20:45.674Z,101057.69
2023-07-29T03:23:15.310Z,101064.16
2023-07-29T03:25:44.587Z,101060.25
2023-07-29T03:28:14.043Z,101062.66
2023-07-29T03:30:55.042Z,101063.03
2023-07-29T03:33:39.531Z,101070.63
2023-07-29T03:42:12.109Z,101078.84
2023-07-29T03:46:26.374Z,101076.13
2023-07-29T03:49:22.874Z,101077.94
2023-07-29T03:51:56.946Z,101074.09
2023-07-29T03:54:28.305Z,101074.78
2023-07-29T03:56:57.995Z,101074.09
2023-07-29T03:59:27.634Z,101095.53
2023-07-29T04:02:19.443Z,101091.50
2023-07-29T04:04:50.128Z,101098.03
2023-07-29T04:07:28.995Z,101096.78
2023-07-29T04:09:58.780Z,101117.25
2023-07-29T04:12:27.987Z,101106.16
2023-07-29T04:15:18.687Z,101112.47
2023-07-29T04:17:56.485Z,101115.13
2023-07-29T04:20:25.902Z,101119.41
2023-07-29T04:22:54.940Z,101122.97
2023-07-29T04:25:24.875Z,101123.38
2023-07-29T04:27:54.314Z,101127.50
2023-07-29T04:30:29.995Z,101127.25
2023-07-29T04:33:29.677Z,101129.38
2023-07-29T04:35:59.654Z,101125.53
2023-07-29T04:38:55.678Z,101128.09
2023-07-29T04:41:47.696Z,101143.53
2023-07-29T04:44:49.993Z,101139.19
2023-07-29T04:47:43.976Z,101132.75
2023-07-29T04:50:29.164Z,101139.22
2023-07-29T04:53:04.572Z,101142.19
2023-07-29T04:55:39.862Z,101141.22
2023-07-29T04:58:15.023Z,101147.75
2023-07-29T05:01:12.078Z,101138.00
2023-07-29T05:04:02.197Z,101148.13
2023-07-29T05:06:36.785Z,101144.22
2023-07-29T05:09:39.819Z,101153.38
2023-07-29T05:12:21.607Z,101149.34
2023-07-29T05:15:00.835Z,101142.13
2023-07-29T05:17:55.710Z,101151.09
2023-07-29T05:20:27.908Z,101143.53
2023-07-29T05:23:21.204Z,101146.16
2023-07-29T05:25:53.650Z,101150.16
2023-07-29T05:28:26.656Z,101141.38
2023-07-29T05:34:08.987Z,101137.16
2023-07-29T05:36:41.367Z,101134.00
2023-07-29T05:39:43.635Z,101139.72
2023-07-29T05:42:16.006Z,101138.13
2023-07-29T05:45:11.612Z,101142.88
2023-07-29T05:47:51.709Z,101146.44
2023-07-29T05:50:34.169Z,101148.91
2023-07-29T05:59:12.994Z,101138.38
2023-07-29T06:01:57.184Z,101143.47
2023-07-29T06:04:52.266Z,101145.03
2023-07-29T06:07:43.200Z,101144.22
2023-07-29T06:10:54.239Z,101159.44
2023-07-29T06:13:36.114Z,101152.09
2023-07-29T06:16:11.460Z,101153.38
2023-07-29T06:22:03.886Z,101154.13
2023-07-29T06:25:03.692Z,101151.84
2023-07-29T06:27:42.202Z,101164.78
2023-07-29T06:30:45.480Z,101159.03
2023-07-29T06:34:19.475Z,101161.34
2023-07-29T06:39:43.959Z,101164.22
2023-07-29T06:42:33.505Z,101163.16
2023-07-29T06:45:08.077Z,101162.28
2023-07-29T06:47:41.638Z,101161.75
2023-07-29T06:50:32.484Z,101165.16
2023-07-29T06:53:18.400Z,101159.50
2023-07-29T06:55:57.809Z,101167.19
2023-07-29T06:58:30.670Z,101164.22
2023-07-29T07:01:06.804Z,101159.00
2023-07-29T07:03:56.082Z,101161.41
2023-07-29T07:06:27.720Z,101158.22
2023-07-29T07:08:59.864Z,101159.06
2023-07-29T07:11:37.051Z,101160.34
2023-07-29T07:14:32.790Z,101167.63
2023-07-29T07:17:04.666Z,101163.97
2023-07-29T07:19:46.660Z,101170.59
2023-07-29T07:22:26.089Z,101170.72
2023-07-29T07:24:58.550Z,101174.31
2023-07-29T07:27:30.283Z,101179.31
2023-07-29T07:30:23.499Z,101172.81
2023-07-29T07:32:56.223Z,101178.94
2023-07-29T07:35:38.170Z,101183.81
2023-07-29T07:38:14.295Z,101183.03
2023-07-29T07:40:58.779Z,101187.22
2023-07-29T07:43:45.540Z,101182.44
2023-07-29T07:46:16.997Z,101183.44
2023-07-29T07:48:51.985Z,101183.34
2023-07-29T07:51:43.276Z,101180.91
2023-07-29T07:54:12.636Z,101182.81
2023-07-29T07:56:46.429Z,101187.47
2023-07-29T07:59:18.363Z,101187.38
2023-07-29T08:02:02.096Z,101186.16
2023-07-29T08:04:40.233Z,101189.91
2023-07-29T08:07:14.692Z,101183.63
2023-07-29T08:09:45.691Z,101188.41
2023-07-29T08:12:26.341Z,101187.56
2023-07-29T08:14:58.150Z,101188.44
2023-07-29T08:17:42.144Z,101191.66
2023-07-29T08:20:16.984Z,101200.50
2023-07-29T08:22:53.946Z,101198.88
2023-07-29T08:25:41.522Z,101201.78
2023-07-29T08:28:19.033Z,101207.13
2023-07-29T08:34:07.417Z,101208.13
2023-07-29T08:36:38.033Z,101204.09
2023-07-29T08:39:12.545Z,101208.13
2023-07-29T08:42:11.646Z,101210.59
2023-07-29T08:45:16.625Z,101204.25
2023-07-29T08:47:56.142Z,101209.06
2023-07-29T08:50:31.725Z,101212.97
2023-07-29T08:53:08.829Z,101213.06
2023-07-29T08:55:53.733Z,101209.06
2023-07-29T08:58:28.942Z,101225.09
2023-07-29T09:00:58.752Z,101214.28
2023-07-29T09:03:28.157Z,101210.28
2023-07-29T09:06:01.295Z,101217.13
2023-07-29T09:08:34.452Z,101209.47
2023-07-29T09:11:06.246Z,101215.91
2023-07-29T09:13:42.452Z,101212.69
2023-07-29T09:16:32.280Z,101214.41
2023-07-29T09:19:21.833Z,101218.34
2023-07-29T09:21:57.765Z,101216.69
2023-07-29T09:24:44.528Z,101211.50
2023-07-29T09:27:42.568Z,101206.00
2023-07-29T09:30:18.898Z,101206.84
2023-07-29T09:32:59.080Z,101206.00
2023-07-29T09:35:40.005Z,101210.03
2023-07-29T09:38:20.412Z,101214.16
2023-07-29T09:40:49.579Z,101219.75
2023-07-29T09:43:40.007Z,101222.19
2023-07-29T09:46:15.541Z,101218.28
2023-07-29T09:48:47.936Z,101212.22
2023-07-29T09:51:17.810Z,101221.44
2023-07-29T09:54:03.815Z,101211.16
2023-07-29T09:56:47.205Z,101219.88
2023-07-29T09:59:21.714Z,101223.88
2023-07-29T10:02:06.172Z,101217.56
2023-07-29T10:04:39.506Z,101221.66
2023-07-29T10:07:17.202Z,101218.47
2023-07-29T10:09:49.478Z,101224.91
2023-07-29T10:12:24.043Z,101222.66
2023-07-29T10:15:01.137Z,101225.69
2023-07-29T10:17:37.435Z,101225.72
2023-07-29T10:20:11.048Z,101230.16
2023-07-29T10:22:49.887Z,101222.16
2023-07-29T10:25:45.324Z,101224.94
2023-07-29T10:28:17.835Z,101224.16
2023-07-29T10:30:56.355Z,101217.66
2023-07-29T10:33:25.666Z,101223.31
2023-07-29T10:35:56.906Z,101225.78
2023-07-29T10:38:36.493Z,101224.31
2023-07-29T10:41:05.655Z,101224.63
2023-07-29T10:43:39.871Z,101222.66
2023-07-29T10:46:27.369Z,101226.69
2023-07-29T10:49:04.967Z,101223.50
2023-07-29T10:51:41.046Z,101229.97
2023-07-29T10:54:18.828Z,101209.88
2023-07-29T10:57:09.780Z,101219.44
2023-07-29T10:59:59.635Z,101221.78
2023-07-29T11:02:36.011Z,101218.28
2023-07-29T11:05:21.466Z,101221.91
2023-07-29T11:07:53.833Z,101225.91
2023-07-29T11:10:30.983Z,101219.59
2023-07-29T11:13:01.277Z,101232.97
2023-07-29T11:15:36.409Z,101235.13
2023-07-29T11:18:05.790Z,101234.75
2023-07-29T11:20:36.244Z,101234.06
2023-07-29T11:23:08.706Z,101233.69
2023-07-29T11:25:42.468Z,101227.66
2023-07-29T11:28:11.659Z,101234.78
2023-07-29T11:30:44.475Z,101229.34
2023-07-29T11:33:15.174Z,101231.69
2023-07-29T11:35:49.631Z,101242.31
2023-07-29T11:38:23.140Z,101244.22
2023-07-29T11:41:03.015Z,101242.59
2023-07-29T11:43:38.448Z,101249.75
2023-07-29T11:46:10.191Z,101250.50
2023-07-29T11:48:40.722Z,101250.47
2023-07-29T11:51:11.095Z,101260.06
2023-07-29T11:53:40.484Z,101259.38
2023-07-29T11:56:18.817Z,101258.34
2023-07-29T11:58:48.468Z,101253.50
2023-07-29T12:01:21.585Z,101261.13
2023-07-29T12:04:15.155Z,101252.94
2023-07-29T12:06:46.856Z,101259.50
2023-07-29T12:09:19.506Z,101253.06
2023-07-29T12:14:40.410Z,101268.28
2023-07-29T12:17:19.769Z,101262.22
2023-07-29T12:20:09.161Z,101266.69
2023-07-29T12:22:42.054Z,101264.44
2023-07-29T12:25:14.106Z,101269.94
2023-07-29T12:27:46.061Z,101264.31
2023-07-29T12:31:12.574Z,101276.78
2023-07-29T12:33:59.163Z,101278.03
2023-07-29T12:36:51.696Z,101274.75
2023-07-29T12:39:28.962Z,101281.09
2023-07-29T12:42:20.672Z,101276.75
2023-07-29T12:44:50.638Z,101279.19
2023-07-29T12:47:22.993Z,101284.06
2023-07-29T12:50:05.813Z,101279.19
2023-07-29T12:52:35.079Z,101286.00
2023-07-29T12:55:06.614Z,101283.56
2023-07-29T12:57:48.526Z,101283.47
2023-07-29T13:00:24.390Z,101286.34
2023-07-29T13:03:01.026Z,101287.94
2023-07-29T13:06:07.538Z,101290.84
2023-07-29T13:09:14.097Z,101274.88
2023-07-29T13:11:58.172Z,101278.78
2023-07-29T13:14:45.622Z,101289.59
2023-07-29T13:17:34.004Z,101297.19
2023-07-29T13:20:17.563Z,101289.59
2023-07-29T13:23:06.019Z,101297.50
2023-07-29T13:29:21.353Z,101294.41
2023-07-29T13:31:30.234Z,101297.91
2023-07-29T13:31:56.729Z,101299.50
2023-07-29T13:34:28.874Z,101296.34
2023-07-29T13:36:59.820Z,101291.91
2023-07-29T13:39:29.476Z,101299.53
2023-07-29T13:41:58.556Z,101297.13
2023-07-29T13:44:32.148Z,101301.03
2023-07-29T13:47:01.431Z,101301.94
2023-07-29T13:49:33.022Z,101292.41
2023-07-29T13:52:02.654Z,101303.19
2023-07-29T13:54:31.686Z,101309.13
2023-07-29T13:57:00.687Z,101307.44
2023-07-29T13:59:29.968Z,101316.25
2023-07-29T14:01:59.188Z,101311.91
2023-07-29T14:04:28.278Z,101320.75
2023-07-29T14:06:59.622Z,101318.47
2023-07-29T14:09:29.700Z,101312.81
2023-07-29T14:11:58.720Z,101308.34
2023-07-29T14:14:30.821Z,101316.38
2023-07-29T14:17:09.460Z,101317.84
2023-07-29T14:19:41.151Z,101325.13
2023-07-29T14:22:13.059Z,101322.44
2023-07-29T14:24:45.550Z,101327.56
2023-07-29T14:27:16.009Z,101329.09
2023-07-29T14:29:47.508Z,101335.47
2023-07-29T14:32:16.781Z,101330.38
2023-07-29T14:35:16.334Z,101327.56
2023-07-29T14:41:31.830Z,101323.53
2023-07-29T14:44:27.042Z,101326.00
2023-07-29T14:46:51.057Z,101333.16
2023-07-29T14:47:02.553Z,101337.94
2023-07-29T14:49:39.045Z,101334.75
2023-07-29T14:52:35.784Z,101329.84
2023-07-29T14:55:30.336Z,101338.97
2023-07-29T14:58:39.665Z,101335.25
2023-07-29T15:01:11.042Z,101340.91
2023-07-29T15:04:51.726Z,101336.91
2023-07-29T15:08:12.297Z,101334.34
2023-07-29T15:12:08.286Z,101332.47
2023-07-29T15:16:22.984Z,101330.31
2023-07-29T15:18:50.306Z,101334.13
2023-07-29T15:21:22.546Z,101337.81
2023-07-29T15:23:57.819Z,101332.53
2023-07-29T15:26:44.573Z,101332.59
2023-07-29T15:29:18.542Z,101338.13
2023-07-29T15:34:57.677Z,101346.13
2023-07-29T15:37:30.152Z,101342.06
2023-07-29T15:40:08.310Z,101339.59
2023-07-29T15:42:43.886Z,101341.31
2023-07-29T15:45:25.177Z,101342.78
2023-07-29T15:47:57.509Z,101341.31
2023-07-29T15:50:26.599Z,101339.72
2023-07-29T15:52:56.363Z,101350.75
2023-07-29T15:55:25.437Z,101345.41
2023-07-29T15:58:29.797Z,101348.63
2023-07-29T16:01:04.714Z,101356.69
2023-07-29T16:03:34.305Z,101352.34
2023-07-29T16:06:04.132Z,101347.66
2023-07-29T16:08:33.494Z,101352.34
2023-07-29T16:11:03.429Z,101352.91
2023-07-29T16:13:32.440Z,101353.66
2023-07-29T16:16:01.799Z,101351.81
2023-07-29T16:18:30.969Z,101353.78
2023-07-29T16:21:03.768Z,101357.41
2023-07-29T16:23:39.607Z,101360.03
2023-07-29T16:26:19.942Z,101354.81
2023-07-29T16:28:51.126Z,101357.88
2023-07-29T16:31:20.911Z,101363.34
2023-07-29T16:33:53.368Z,101364.91
2023-07-29T16:36:28.112Z,101356.72
2023-07-29T16:39:02.836Z,101370.28
2023-07-29T16:44:45.366Z,101367.84
2023-07-29T16:47:14.666Z,101367.34
2023-07-29T16:49:43.773Z,101361.38
2023-07-29T16:52:12.897Z,101367.44
2023-07-29T16:54:42.361Z,101371.28
2023-07-29T16:57:12.844Z,101356.81
2023-07-29T16:59:45.059Z,101357.44
2023-07-29T17:02:14.300Z,101365.31
2023-07-29T17:04:43.718Z,101361.25
2023-07-29T17:07:15.992Z,101362.19
2023-07-29T17:09:58.285Z,101363.47
2023-07-29T17:12:42.003Z,101364.19
2023-07-29T17:15:49.846Z,101367.75
2023-07-29T17:18:19.118Z,101366.00
2023-07-29T17:20:48.276Z,101365.53
2023-07-29T17:23:19.362Z,101362.97
2023-07-29T17:25:48.542Z,101366.91
2023-07-29T17:28:19.319Z,101366.63
2023-07-29T17:30:57.898Z,101369.63
2023-07-29T17:33:26.983Z,101363.88
2023-07-29T17:36:13.881Z,101358.28
2023-07-29T17:38:43.249Z,101377.75
2023-07-29T17:41:15.506Z,101365.75
2023-07-29T17:43:46.790Z,101373.88
2023-07-29T17:46:19.098Z,101375.31
2023-07-29T17:48:49.075Z,101372.09
2023-07-29T17:51:20.791Z,101372.50
2023-07-29T17:53:53.068Z,101373.50
2023-07-29T17:56:23.896Z,101382.75
2023-07-29T17:58:56.223Z,101377.13
2023-07-29T18:01:26.697Z,101379.56
2023-07-29T18:03:55.980Z,101371.63
2023-07-29T18:06:30.945Z,101375.53
2023-07-29T18:09:02.647Z,101383.84
2023-07-29T18:11:31.913Z,101379.91
2023-07-29T18:14:01.032Z,101380.09
2023-07-29T18:16:39.237Z,101372.00
2023-07-29T18:19:32.065Z,101376.84
2023-07-29T18:22:01.567Z,101377.00
2023-07-29T18:24:30.954Z,101386.13
2023-07-29T18:27:16.024Z,101386.66
2023-07-29T18:29:47.942Z,101376.66
2023-07-29T18:32:17.096Z,101378.59
2023-07-29T18:35:05.064Z,101376.84
2023-07-29T18:37:36.225Z,101382.09
2023-07-29T18:40:31.389Z,101374.59
2023-07-29T18:43:19.227Z,101369.50
2023-07-29T18:45:52.150Z,101367.38
2023-07-29T18:48:29.649Z,101367.28
2023-07-29T18:51:01.718Z,101367.59
2023-07-29T18:53:33.392Z,101371.13
2023-07-29T18:56:08.408Z,101372.34
2023-07-29T18:58:54.215Z,101366.44
2023-07-29T19:01:26.793Z,101369.69
2023-07-29T19:03:56.361Z,101365.22
2023-07-29T19:07:19.846Z,101361.91
2023-07-29T19:09:49.318Z,101363.16
2023-07-29T19:16:21.508Z,101375.69
2023-07-29T19:19:01.921Z,101364.19
2023-07-29T19:21:31.010Z,101360.22
2023-07-29T19:24:01.055Z,101359.00
2023-07-29T19:26:30.589Z,101361.13
2023-07-29T19:28:59.822Z,101365.94
2023-07-29T19:31:29.317Z,101354.94
2023-07-29T19:33:58.385Z,101356.78
2023-07-29T19:36:37.579Z,101358.22
2023-07-29T19:39:07.165Z,101361.19
2023-07-29T19:41:38.487Z,101353.22
2023-07-29T19:44:21.825Z,101354.69
2023-07-29T19:46:58.475Z,101349.44
2023-07-29T19:49:30.294Z,101354.03
2023-07-29T19:52:03.217Z,101353.91
2023-07-29T19:54:33.772Z,101349.38
2023-07-29T19:57:04.524Z,101363.03
2023-07-29T19:59:49.917Z,101360.28
2023-07-29T20:02:21.695Z,101366.66
2023-07-29T20:04:56.698Z,101353.41
2023-07-29T20:07:26.885Z,101360.47
2023-07-29T20:09:56.192Z,101360.84
2023-07-29T20:12:28.287Z,101359.63
2023-07-29T20:15:02.315Z,101358.75
2023-07-29T20:18:05.927Z,101349.91
2023-07-29T20:20:38.226Z,101361.28
2023-07-29T20:23:10.404Z,101354.38
2023-07-29T20:25:39.669Z,101354.50
2023-07-29T20:28:40.451Z,101355.31
2023-07-29T20:31:34.162Z,101361.00
2023-07-29T20:34:09.748Z,101359.03
2023-07-29T20:39:43.156Z,101355.31
2023-07-29T20:45:24.729Z,101347.22
2023-07-29T20:47:57.164Z,101355.00
2023-07-29T20:50:30.144Z,101347.56
2023-07-29T20:53:03.392Z,101347.22
2023-07-29T20:55:32.825Z,101341.28
2023-07-29T20:58:04.880Z,101346.31
2023-07-29T21:09:42.175Z,101344.38
2023-07-29T21:23:35.054Z,101337.72
2023-07-29T21:26:08.092Z,101333.41
2023-07-29T21:35:48.014Z,101329.22
2023-07-29T21:39:38.131Z,101330.09
2023-07-29T21:42:28.031Z,101329.91
2023-07-29T21:44:34.463Z,101337.50
2023-07-29T21:45:22.689Z,101324.22
2023-07-29T21:48:04.362Z,101327.84
2023-07-29T21:56:11.708Z,101323.06
2023-07-29T21:59:07.365Z,101327.31
2023-07-29T22:01:41.837Z,101334.28
2023-07-29T22:04:11.515Z,101332.09
2023-07-29T22:06:43.330Z,101336.38
2023-07-29T22:09:12.864Z,101332.59
2023-07-29T22:11:41.839Z,101332.13
2023-07-29T22:14:11.055Z,101336.69
2023-07-29T22:16:40.067Z,101333.38
2023-07-29T22:19:10.190Z,101331.72
2023-07-29T22:21:39.537Z,101321.38
2023-07-29T22:24:09.088Z,101322.53
2023-07-29T22:26:41.092Z,101327.53
2023-07-29T22:29:10.503Z,101327.66
2023-07-29T22:31:43.060Z,101319.34
2023-07-29T22:34:15.638Z,101319.63
2023-07-29T22:36:44.721Z,101310.00
2023-07-29T22:39:15.959Z,101317.78
2023-07-29T22:41:45.027Z,101307.06
2023-07-29T22:44:14.068Z,101308.34
2023-07-29T22:46:45.724Z,101316.41
2023-07-29T22:49:18.843Z,101311.59
2023-07-29T22:52:00.598Z,101311.84
2023-07-29T22:54:55.684Z,101308.22
2023-07-29T22:57:58.094Z,101304.31
2023-07-29T23:01:55.731Z,101303.69
2023-07-29T23:04:32.405Z,101292.44
2023-07-29T23:07:03.553Z,101297.00
2023-07-29T23:09:35.221Z,101288.09
2023-07-29T23:12:28.998Z,101285.25
2023-07-29T23:15:38.996Z,101292.00
2023-07-29T23:18:08.767Z,101289.22
2023-07-29T23:20:42.922Z,101286.91
2023-07-29T23:23:12.558Z,101284.13
2023-07-29T23:25:44.144Z,101284.56
2023-07-29T23:28:15.555Z,101279.59
2023-07-29T23:30:44.832Z,101275.53
2023-07-29T23:33:13.852Z,101283.78
2023-07-29T23:35:43.013Z,101273.97
2023-07-29T23:38:40.865Z,101273.47
2023-07-29T23:41:30.221Z,101277.50
2023-07-29T23:44:05.211Z,101272.72
2023-07-29T23:48:18.708Z,101270.59
2023-07-29T23:51:06.436Z,101268.66
2023-07-29T23:53:38.801Z,101262.09
2023-07-29T23:56:12.346Z,101267.50
2023-07-29T23:59:29.658Z,101260.81
